createdAt,value
2023-04-01T00:00:54.370Z,5.63
2023-04-01T00:03:23.306Z,5.55
2023-04-01T00:05:51.222Z,8.77
2023-04-01T00:08:19.143Z,5.25
2023-04-01T00:10:46.744Z,6.65
2023-04-01T00:13:14.221Z,7.10
2023-04-01T00:15:42.011Z,5.97
2023-04-01T00:18:09.955Z,4.80
2023-04-01T00:20:37.798Z,4.32
2023-04-01T00:23:06.097Z,6.20
2023-04-01T00:25:33.397Z,3.65
2023-04-01T00:28:00.612Z,6.80
2023-04-01T00:30:27.782Z,7.93
2023-04-01T00:32:55.240Z,5.50
2023-04-01T00:35:23.447Z,4.22
2023-04-01T00:37:50.562Z,2.55
2023-04-01T00:40:41.413Z,3.58
2023-04-01T00:43:21.461Z,3.67
2023-04-01T00:45:50.631Z,5.00
2023-04-01T00:48:26.279Z,9.52
2023-04-01T00:51:01.172Z,5.10
2023-04-01T00:53:31.374Z,4.18
2023-04-01T00:56:06.154Z,2.43
2023-04-01T00:58:40.918Z,5.22
2023-04-01T01:01:10.409Z,3.55
2023-04-01T01:03:38.022Z,3.95
2023-04-01T01:06:27.821Z,4.40
2023-04-01T01:09:27.137Z,3.47
2023-04-01T01:12:33.481Z,3.50
2023-04-01T01:15:29.980Z,3.33
2023-04-01T01:18:11.104Z,2.95
2023-04-01T01:21:52.144Z,2.90
2023-04-01T01:25:06.958Z,3.33
2023-04-01T01:27:36.933Z,4.60
2023-04-01T01:30:38.397Z,6.35
2023-04-01T01:33:20.395Z,5.60
2023-04-01T01:35:53.805Z,3.85
2023-04-01T01:38:27.537Z,5.30
2023-04-01T01:41:02.738Z,5.55
2023-04-01T01:43:52.511Z,4.65
2023-04-01T01:46:24.291Z,3.22
2023-04-01T01:48:53.486Z,5.60
2023-04-01T01:51:23.105Z,4.17
2023-04-01T01:53:50.488Z,5.68
2023-04-01T01:56:22.672Z,4.10
2023-04-01T01:58:55.704Z,3.42
2023-04-01T02:01:31.448Z,4.90
2023-04-01T02:04:07.020Z,4.03
2023-04-01T02:06:38.482Z,6.43
2023-04-01T02:09:11.705Z,4.80
2023-04-01T02:11:55.097Z,4.80
2023-04-01T02:14:27.108Z,4.95
2023-04-01T02:17:05.660Z,4.70
2023-04-01T02:19:48.848Z,4.80
2023-04-01T02:22:22.344Z,8.57
2023-04-01T02:24:55.024Z,5.75
2023-04-01T02:27:22.644Z,7.88
2023-04-01T02:29:49.837Z,7.00
2023-04-01T02:32:19.283Z,9.10
2023-04-01T02:34:48.592Z,6.80
2023-04-01T02:37:17.221Z,9.05
2023-04-01T02:39:44.803Z,8.05
2023-04-01T02:42:12.058Z,7.50
2023-04-01T02:44:39.178Z,10.38
2023-04-01T02:47:06.411Z,9.32
2023-04-01T02:49:33.607Z,6.80
2023-04-01T02:52:01.071Z,11.07
2023-04-01T02:54:28.181Z,9.27
2023-04-01T02:56:55.407Z,9.43
2023-04-01T02:59:22.560Z,10.90
2023-04-01T03:01:49.690Z,8.02
2023-04-01T03:04:16.924Z,9.02
2023-04-01T03:06:44.068Z,13.27
2023-04-01T03:09:11.635Z,10.25
2023-04-01T03:11:38.732Z,10.77
2023-04-01T03:14:05.976Z,10.45
2023-04-01T03:16:33.062Z,12.73
2023-04-01T03:19:02.910Z,12.83
2023-04-01T03:21:30.029Z,7.88
2023-04-01T03:23:57.137Z,9.25
2023-04-01T03:26:24.274Z,16.83
2023-04-01T03:28:51.525Z,10.40
2023-04-01T03:31:19.716Z,12.33
2023-04-01T03:33:52.689Z,11.10
2023-04-01T03:36:20.081Z,10.00
2023-04-01T03:38:47.746Z,9.00
2023-04-01T03:41:20.216Z,11.32
2023-04-01T03:43:47.298Z,9.77
2023-04-01T03:46:19.992Z,10.45
2023-04-01T03:48:48.266Z,9.82
2023-04-01T03:51:15.624Z,9.48
2023-04-01T03:53:42.907Z,9.52
2023-04-01T03:56:11.127Z,10.13
2023-04-01T03:58:39.794Z,13.60
2023-04-01T04:01:24.425Z,10.00
2023-04-01T04:03:55.490Z,11.50
2023-04-01T04:06:24.488Z,12.57
2023-04-01T04:08:52.675Z,9.00
2023-04-01T04:11:21.131Z,12.10
2023-04-01T04:13:49.149Z,10.20
2023-04-01T04:16:18.152Z,11.25
2023-04-01T04:18:49.586Z,15.38
2023-04-01T04:21:17.996Z,11.30
2023-04-01T04:23:45.107Z,11.10
2023-04-01T04:26:16.165Z,12.48
2023-04-01T04:28:47.636Z,10.80
2023-04-01T04:31:24.430Z,12.20
2023-04-01T04:33:54.141Z,10.17
2023-04-01T04:36:22.647Z,8.77
2023-04-01T04:38:51.370Z,13.02
2023-04-01T04:41:20.617Z,10.82
2023-04-01T04:43:56.703Z,10.65
2023-04-01T04:46:26.005Z,12.17
2023-04-01T04:48:59.686Z,12.35
2023-04-01T04:51:27.381Z,8.90
2023-04-01T04:53:54.484Z,11.57
2023-04-01T04:56:30.223Z,9.00
2023-04-01T04:59:08.936Z,10.17
2023-04-01T05:01:48.717Z,6.95
2023-04-01T05:04:15.831Z,8.65
2023-04-01T05:06:45.807Z,9.90
2023-04-01T05:09:14.560Z,9.15
2023-04-01T05:11:41.791Z,7.83
2023-04-01T05:14:16.993Z,8.82
2023-04-01T05:16:51.563Z,8.02
2023-04-01T05:19:18.874Z,9.07
2023-04-01T05:21:45.925Z,8.82
2023-04-01T05:24:13.045Z,8.27
2023-04-01T05:26:40.596Z,7.88
2023-04-01T05:29:07.802Z,8.32
2023-04-01T05:31:34.981Z,8.48
2023-04-01T05:34:02.878Z,8.73
2023-04-01T05:36:30.292Z,7.67
2023-04-01T05:38:58.032Z,9.00
2023-04-01T05:41:27.228Z,11.65
2023-04-01T05:43:54.423Z,10.13
2023-04-01T05:46:44.773Z,8.18
2023-04-01T05:49:21.657Z,6.90
2023-04-01T05:51:50.652Z,8.93
2023-04-01T05:54:18.195Z,7.60
2023-04-01T05:56:47.669Z,7.95
2023-04-01T05:59:16.295Z,8.55
2023-04-01T06:01:44.018Z,6.83
2023-04-01T06:04:16.614Z,7.70
2023-04-01T06:06:44.084Z,8.13
2023-04-01T06:09:31.789Z,12.90
2023-04-01T06:12:26.315Z,9.45
2023-04-01T06:15:21.738Z,9.63
2023-04-01T06:18:32.053Z,13.70
2023-04-01T06:21:49.727Z,12.00
2023-04-01T06:25:00.829Z,11.90
2023-04-01T06:27:56.627Z,12.23
2023-04-01T06:30:50.305Z,11.30
2023-04-01T06:33:29.941Z,14.68
2023-04-01T06:36:25.390Z,12.93
2023-04-01T06:39:14.714Z,8.77
2023-04-01T06:41:56.745Z,12.10
2023-04-01T06:44:36.009Z,11.00
2023-04-01T06:47:30.562Z,12.73
2023-04-01T06:50:46.389Z,12.18
2023-04-01T06:53:45.454Z,9.25
2023-04-01T06:56:38.956Z,9.30
2023-04-01T06:59:23.497Z,8.47
2023-04-01T07:02:19.142Z,11.48
2023-04-01T07:04:50.210Z,8.77
2023-04-01T07:07:42.464Z,11.85
2023-04-01T07:10:23.917Z,7.40
2023-04-01T07:13:42.059Z,10.73
2023-04-01T07:16:38.825Z,8.93
2023-04-01T07:19:31.594Z,7.32
2023-04-01T07:22:22.818Z,9.45
2023-04-01T07:25:15.142Z,11.95
2023-04-01T07:27:46.985Z,7.73
2023-04-01T07:30:18.669Z,8.15
2023-04-01T07:32:52.605Z,9.23
2023-04-01T07:35:39.304Z,7.97
2023-04-01T07:38:09.331Z,7.68
2023-04-01T07:40:54.661Z,8.67
2023-04-01T07:44:00.058Z,6.60
2023-04-01T07:47:00.669Z,6.78
2023-04-01T07:50:05.569Z,5.88
2023-04-01T07:52:40.916Z,4.53
2023-04-01T07:55:29.985Z,4.43
2023-04-01T07:58:36.221Z,7.82
2023-04-01T08:01:57.106Z,4.40
2023-04-01T08:04:48.984Z,5.10
2023-04-01T08:07:27.495Z,4.68
2023-04-01T08:10:27.744Z,3.07
2023-04-01T08:13:43.230Z,5.75
2023-04-01T08:17:08.054Z,4.68
2023-04-01T08:20:11.993Z,4.22
2023-04-01T08:22:47.524Z,6.57
2023-04-01T08:25:28.512Z,4.60
2023-04-01T08:28:21.136Z,4.90
2023-04-01T08:31:05.567Z,5.82
2023-04-01T08:33:34.837Z,4.10
2023-04-01T08:36:39.083Z,3.85
2023-04-01T08:40:03.501Z,3.73
2023-04-01T08:43:07.542Z,4.05
2023-04-01T08:45:56.135Z,4.57
2023-04-01T08:48:38.017Z,4.25
2023-04-01T08:51:28.311Z,7.78
2023-04-01T08:54:43.465Z,4.67
2023-04-01T08:57:38.500Z,3.47
2023-04-01T09:00:36.155Z,3.92
2023-04-01T09:03:55.674Z,2.75
2023-04-01T09:06:52.326Z,2.92
2023-04-01T09:09:56.554Z,8.67
2023-04-01T09:12:29.498Z,2.63
2023-04-01T09:15:06.376Z,2.75
2023-04-01T09:18:05.223Z,3.70
2023-04-01T09:21:13.506Z,3.20
2023-04-01T09:24:10.615Z,3.97
2023-04-01T09:26:43.454Z,2.88
2023-04-01T09:29:56.789Z,3.10
2023-04-01T09:33:28.894Z,2.63
2023-04-01T09:36:41.048Z,4.40
2023-04-01T09:39:24.846Z,3.90
2023-04-01T09:42:01.343Z,3.15
2023-04-01T09:45:00.586Z,4.78
2023-04-01T09:47:55.580Z,3.22
2023-04-01T09:50:28.510Z,3.10
2023-04-01T09:53:26.800Z,3.60
2023-04-01T09:56:39.051Z,2.95
2023-04-01T09:59:34.438Z,3.42
2023-04-01T10:02:47.578Z,3.17
2023-04-01T10:05:49.353Z,4.07
2023-04-01T10:08:52.851Z,5.10
2023-04-01T10:11:55.505Z,3.92
2023-04-01T10:14:39.453Z,3.40
2023-04-01T10:17:31.584Z,4.68
2023-04-01T10:20:41.820Z,3.47
2023-04-01T10:23:43.046Z,4.13
2023-04-01T10:26:28.567Z,3.40
2023-04-01T10:29:55.105Z,3.65
2023-04-01T10:32:39.520Z,3.65
2023-04-01T10:35:47.221Z,4.40
2023-04-01T10:39:00.430Z,3.50
2023-04-01T10:42:10.067Z,3.05
2023-04-01T10:45:55.770Z,4.05
2023-04-01T10:48:32.468Z,4.45
2023-04-01T10:51:18.079Z,3.65
2023-04-01T10:54:06.982Z,3.60
2023-04-01T10:57:17.512Z,3.63
2023-04-01T11:01:06.796Z,4.18
2023-04-01T11:04:40.120Z,4.32
2023-04-01T11:07:40.470Z,4.47
2023-04-01T11:10:35.409Z,5.70
2023-04-01T11:13:47.977Z,4.97
2023-04-01T11:17:00.536Z,4.93
2023-04-01T11:20:03.604Z,4.38
2023-04-01T11:23:05.293Z,4.32
2023-04-01T11:26:17.489Z,3.23
2023-04-01T11:29:25.034Z,3.30
2023-04-01T11:32:28.158Z,3.90
2023-04-01T11:35:21.100Z,5.00
2023-04-01T11:38:26.321Z,3.35
2023-04-01T11:41:23.262Z,3.87
2023-04-01T11:44:28.337Z,4.20
2023-04-01T11:47:42.866Z,3.15
2023-04-01T11:50:35.256Z,3.15
2023-04-01T11:54:05.657Z,3.22
2023-04-01T11:57:00.910Z,3.80
2023-04-01T11:59:41.475Z,3.00
2023-04-01T12:02:32.986Z,2.65
2023-04-01T12:05:43.294Z,3.40
2023-04-01T12:08:42.148Z,5.25
2023-04-01T12:11:28.765Z,2.43
2023-04-01T12:14:03.949Z,2.22
2023-04-01T12:16:52.169Z,3.47
2023-04-01T12:19:42.728Z,2.70
2023-04-01T12:22:47.499Z,4.07
2023-04-01T12:25:48.711Z,3.10
2023-04-01T12:28:49.531Z,3.38
2023-04-01T12:31:41.570Z,3.83
2023-04-01T12:34:53.881Z,2.55
2023-04-01T12:37:57.215Z,3.17
2023-04-01T12:40:43.515Z,4.60
2023-04-01T12:43:28.566Z,3.65
2023-04-01T12:46:04.436Z,5.78
2023-04-01T12:49:07.232Z,5.00
2023-04-01T12:52:07.443Z,5.20
2023-04-01T12:55:26.210Z,5.93
2023-04-01T12:58:19.949Z,5.03
2023-04-01T13:01:27.234Z,5.60
2023-04-01T13:04:35.054Z,5.65
2023-04-01T13:07:20.611Z,5.60
2023-04-01T13:10:19.625Z,6.37
2023-04-01T13:12:58.937Z,7.63
2023-04-01T13:15:46.457Z,6.22
2023-04-01T13:18:40.764Z,5.50
2023-04-01T13:21:40.975Z,5.55
2023-04-01T13:24:48.084Z,4.83
2023-04-01T13:27:41.530Z,5.47
2023-04-01T13:30:36.390Z,7.10
2023-04-01T13:33:23.915Z,5.45
2023-04-01T13:36:13.249Z,5.78
2023-04-01T13:39:11.979Z,5.90
2023-04-01T13:42:02.971Z,5.53
2023-04-01T13:44:45.713Z,6.68
2023-04-01T13:47:47.654Z,6.75
2023-04-01T13:51:06.137Z,5.75
2023-04-01T13:54:03.070Z,5.17
2023-04-01T13:56:54.802Z,5.32
2023-04-01T13:59:34.046Z,5.18
2023-04-01T14:02:34.631Z,5.20
2023-04-01T14:05:42.117Z,4.63
2023-04-01T14:08:30.719Z,4.03
2023-04-01T14:11:16.541Z,4.32
2023-04-01T14:14:13.464Z,4.20
2023-04-01T14:17:18.286Z,4.13
2023-04-01T14:19:54.721Z,4.53
2023-04-01T14:22:30.431Z,4.33
2023-04-01T14:25:51.783Z,3.95
2023-04-01T14:29:06.167Z,3.72
2023-04-01T14:32:04.832Z,2.25
2023-04-01T14:34:56.643Z,3.25
2023-04-01T14:37:49.655Z,5.07
2023-04-01T14:40:22.479Z,3.13
2023-04-01T14:43:23.217Z,2.97
2023-04-01T14:46:21.193Z,2.40
2023-04-01T14:49:02.441Z,3.25
2023-04-01T14:51:29.531Z,3.27
2023-04-01T14:54:06.619Z,2.15
2023-04-01T14:56:44.275Z,2.90
2023-04-01T14:59:23.539Z,4.03
2023-04-01T15:02:35.844Z,3.45
2023-04-01T15:05:16.673Z,2.23
2023-04-01T15:07:58.479Z,3.97
2023-04-01T15:10:44.381Z,4.57
2023-04-01T15:13:23.483Z,2.67
2023-04-01T15:16:32.385Z,3.83
2023-04-01T15:19:29.146Z,2.93
2023-04-01T15:22:08.634Z,3.40
2023-04-01T15:25:12.522Z,3.03
2023-04-01T15:27:50.485Z,2.47
2023-04-01T15:31:02.502Z,2.78
2023-04-01T15:33:46.082Z,2.77
2023-04-01T15:36:34.542Z,4.00
2023-04-01T15:39:33.728Z,2.42
2023-04-01T15:42:34.176Z,3.05
2023-04-01T15:45:09.703Z,2.03
2023-04-01T15:48:11.507Z,2.90
2023-04-01T15:50:38.784Z,2.28
2023-04-01T15:53:42.874Z,2.88
2023-04-01T15:56:46.229Z,2.03
2023-04-01T15:59:54.955Z,2.50
2023-04-01T16:02:43.345Z,2.40
2023-04-01T16:05:27.082Z,2.60
2023-04-01T16:08:11.561Z,3.15
2023-04-01T16:11:06.106Z,1.98
2023-04-01T16:13:53.393Z,2.75
2023-04-01T16:17:03.912Z,3.37
2023-04-01T16:19:39.208Z,3.25
2023-04-01T16:22:14.168Z,4.32
2023-04-01T16:24:56.237Z,3.10
2023-04-01T16:27:23.359Z,4.90
2023-04-01T16:31:01.410Z,3.40
2023-04-01T16:33:47.819Z,3.60
2023-04-01T16:36:49.979Z,5.13
2023-04-01T16:39:49.262Z,4.10
2023-04-01T16:42:36.199Z,2.95
2023-04-01T16:45:09.560Z,2.40
2023-04-01T16:47:55.582Z,3.53
2023-04-01T16:50:38.623Z,3.67
2023-04-01T16:53:22.845Z,4.18
2023-04-01T16:55:53.907Z,4.30
2023-04-01T16:59:07.501Z,4.10
2023-04-01T17:02:03.544Z,2.97
2023-04-01T17:04:58.811Z,4.07
2023-04-01T17:07:53.160Z,3.17
2023-04-01T17:10:53.141Z,4.88
2023-04-01T17:13:55.902Z,4.13
2023-04-01T17:16:57.156Z,3.63
2023-04-01T17:20:01.847Z,3.80
2023-04-01T17:22:51.698Z,3.28
2023-04-01T17:25:52.572Z,4.25
2023-04-01T17:28:37.209Z,5.70
2023-04-01T17:31:59.305Z,5.15
2023-04-01T17:35:08.569Z,3.90
2023-04-01T17:37:51.688Z,5.53
2023-04-01T17:40:45.804Z,5.43
2023-04-01T17:43:24.066Z,5.30
2023-04-01T17:46:05.909Z,4.72
2023-04-01T17:48:52.289Z,5.13
2023-04-01T17:51:55.371Z,4.55
2023-04-01T17:54:35.468Z,4.60
2023-04-01T17:57:50.205Z,4.67
2023-04-01T18:00:35.295Z,4.60
2023-04-01T18:04:06.096Z,4.53
2023-04-01T18:07:12.630Z,4.85
2023-04-01T18:10:12.862Z,5.20
2023-04-01T18:13:09.372Z,4.70
2023-04-01T18:16:09.164Z,4.57
2023-04-01T18:18:49.553Z,4.93
2023-04-01T18:21:50.531Z,5.20
2023-04-01T18:24:48.645Z,6.13
2023-04-01T18:27:40.082Z,6.37
2023-04-01T18:30:30.793Z,6.18
2023-04-01T18:33:05.049Z,5.60
2023-04-01T18:36:11.697Z,7.13
2023-04-01T18:38:48.907Z,6.68
2023-04-01T18:41:24.072Z,5.80
2023-04-01T18:44:05.978Z,5.78
2023-04-01T18:47:25.466Z,7.70
2023-04-01T18:50:28.891Z,6.45
2023-04-01T18:53:23.594Z,6.80
2023-04-01T18:56:06.415Z,6.00
2023-04-01T18:59:05.287Z,6.07
2023-04-01T19:02:19.946Z,7.57
2023-04-01T19:05:07.324Z,6.40
2023-04-01T19:08:15.665Z,5.43
2023-04-01T19:11:10.285Z,6.83
2023-04-01T19:14:19.130Z,6.90
2023-04-01T19:17:32.032Z,8.20
2023-04-01T19:20:22.478Z,6.68
2023-04-01T19:23:15.684Z,7.35
2023-04-01T19:25:56.864Z,8.67
2023-04-01T19:28:49.683Z,8.82
2023-04-01T19:31:34.788Z,9.13
2023-04-01T19:34:10.811Z,15.43
2023-04-01T19:37:04.082Z,13.98
2023-04-01T19:40:34.932Z,13.47
2023-04-01T19:43:26.675Z,13.93
2023-04-01T19:46:19.431Z,15.68
2023-04-01T19:49:13.889Z,16.52
2023-04-01T19:51:52.472Z,13.82
2023-04-01T19:54:29.319Z,19.30
2023-04-01T19:57:33.861Z,16.38
2023-04-01T20:00:27.281Z,22.92
2023-04-01T20:03:04.368Z,17.60
2023-04-01T20:06:24.279Z,19.40
2023-04-01T20:09:31.798Z,18.40
2023-04-01T20:12:10.927Z,16.00
2023-04-01T20:14:55.930Z,14.63
2023-04-01T20:17:37.914Z,18.88
2023-04-01T20:20:09.325Z,14.13
2023-04-01T20:22:45.411Z,14.17
2023-04-01T20:25:25.038Z,19.60
2023-04-01T20:27:59.534Z,18.67
2023-04-01T20:31:11.052Z,20.33
2023-04-01T20:34:08.885Z,13.73
2023-04-01T20:36:48.758Z,18.33
2023-04-01T20:39:21.625Z,17.60
2023-04-01T20:42:14.242Z,15.45
2023-04-01T20:45:13.483Z,21.13
2023-04-01T20:47:56.688Z,18.98
2023-04-01T20:50:46.887Z,15.30
2023-04-01T20:53:36.417Z,19.92
2023-04-01T20:56:24.156Z,18.10
2023-04-01T20:58:53.034Z,16.05
2023-04-01T21:01:54.768Z,17.67
2023-04-01T21:04:32.073Z,15.73
2023-04-01T21:07:17.392Z,17.50
2023-04-01T21:09:53.524Z,20.60
2023-04-01T21:12:20.815Z,18.02
2023-04-01T21:15:17.552Z,17.92
2023-04-01T21:17:56.684Z,17.60
2023-04-01T21:21:00.911Z,16.17
2023-04-01T21:23:59.329Z,16.52
2023-04-01T21:27:02.536Z,14.35
2023-04-01T21:29:52.535Z,18.88
2023-04-01T21:32:31.898Z,19.97
2023-04-01T21:35:12.197Z,20.92
2023-04-01T21:38:01.942Z,20.20
2023-04-01T21:41:08.413Z,17.27
2023-04-01T21:44:04.289Z,21.25
2023-04-01T21:47:09.911Z,24.27
2023-04-01T21:50:07.216Z,20.40
2023-04-01T21:53:10.847Z,23.27
2023-04-01T21:56:31.794Z,23.80
2023-04-01T21:59:40.896Z,21.08
2023-04-01T22:03:23.960Z,21.63
2023-04-01T22:06:04.758Z,21.23
2023-04-01T22:08:46.643Z,18.75
2023-04-01T22:11:57.207Z,15.40
2023-04-01T22:14:43.004Z,18.70
2023-04-01T22:17:31.535Z,16.93
2023-04-01T22:20:26.404Z,16.05
2023-04-01T22:23:34.086Z,15.85
2023-04-01T22:26:19.243Z,16.30
2023-04-01T22:29:12.615Z,15.95
2023-04-01T22:31:52.966Z,13.43
2023-04-01T22:34:52.038Z,14.93
2023-04-01T22:37:56.263Z,15.10
2023-04-01T22:40:41.264Z,18.02
2023-04-01T22:43:19.776Z,16.50
2023-04-01T22:46:18.988Z,19.57
2023-04-01T22:49:10.563Z,15.98
2023-04-01T22:51:55.309Z,16.83
2023-04-01T22:54:43.486Z,16.58
2023-04-01T22:57:36.599Z,20.50
2023-04-01T23:00:29.955Z,20.17
2023-04-01T23:03:18.716Z,21.92
2023-04-01T23:05:59.230Z,18.75
2023-04-01T23:09:18.549Z,21.45
2023-04-01T23:12:04.094Z,18.13
2023-04-01T23:14:55.751Z,19.00
2023-04-01T23:17:37.775Z,20.33
2023-04-01T23:20:26.485Z,20.17
2023-04-01T23:23:06.875Z,17.02
2023-04-01T23:25:41.372Z,15.35
2023-04-01T23:28:54.085Z,16.43
2023-04-01T23:31:42.967Z,15.65
2023-04-01T23:34:13.174Z,18.25
2023-04-01T23:36:50.922Z,18.75
2023-04-01T23:39:32.966Z,17.63
2023-04-01T23:42:14.994Z,20.33
2023-04-01T23:44:44.271Z,18.35
2023-04-01T23:47:37.850Z,20.23
2023-04-01T23:50:11.981Z,18.15
2023-04-01T23:52:49.256Z,16.50
2023-04-01T23:55:35.703Z,19.03
2023-04-01T23:58:28.968Z,19.33
